Accueil
METAR-TAF:

METAR-TAF

Aéroports :

Berne, Suisse

Aéroport international de Berne

latitude: 46-55N, longitude: 007-30E, altitude: 505 m

Observation

Le bulletin a été fait il y a 19 minutes, à 21:50 UTC
Vent 4 kt de direction variable
Température 8°C
Humidité 81%
Pression 1015 hPa
Visibilité 10 km ou plus
Nuages fragmentés à une hauteur de 6000 ft
Nuages épars à une hauteur de 8000 ft
bruine

METAR: LSZB 242150Z AUTO VRB04KT 9999 DZ BKN060 SCT080 08/05 Q1015

Heure: 23:09 (22:09 UTC)

Prévision

Le bulletin a été fait il y a 10 heures et 44 minutes, à 11:25 UTC
Prévision valable du 24 à 12 UTC au 24 à 21 UTC
Vent 3 kt de direction variable
Visibilité 10 km ou plus
pas de nuages en-dessous de 1500 mètres et pas de cumulonimbus.
Temporairement
du 24 à 14 UTC au 24 à 21 UTC
Visibilité 10 km ou plus
Nuages épars à une hauteur de 10000 ft

TAF: LSZB 241125Z 2412/2421 VRB03KT CAVOK TEMPO 2414/2421 9999 SCT100

Observations et prévisions météorologiques de plus de 4000 aéroports (messages METAR et TAF).

Les stations disponibles sont représentées par des disques jaunes et rouges sur la carte.

Passer la souris dessus pour voir le nom de la station.

Cliquer dessus pour voir les observations et prévisions météorologiques.

Pour changer de carte: cliquez sur les boutons verts avec une croix noire pour zoomer, sur le bouton vert avec un tiret pour effectuer un zoom arrière, ou sur les flèches vertes pour les cartes adjacentes.


METAR-TAF: